sensor_id;sensor_type;location;lat;lon;timestamp;pressure;altitude;pressure_sealevel;temperature;humidity
44457;BME280;30159;49.316;8.558;2023-02-28T00:01:27;101367.13;;;0.93;68.00
44457;BME280;30159;49.316;8.558;2023-02-28T00:03:54;101215.53;;;-0.11;68.43
44457;BME280;30159;49.316;8.558;2023-02-28T00:06:21;101371.53;;;0.79;68.95
44457;BME280;30159;49.316;8.558;2023-02-28T00:08:48;101376.25;;;0.84;68.91
44457;BME280;30159;49.316;8.558;2023-02-28T00:11:15;101365.75;;;0.76;68.93
44457;BME280;30159;49.316;8.558;2023-02-28T00:13:43;101303.69;;;0.34;69.31
44457;BME280;30159;49.316;8.558;2023-02-28T00:16:14;101373.09;;;0.74;69.62
44457;BME280;30159;49.316;8.558;2023-02-28T00:18:41;101346.38;;;0.54;70.10
44457;BME280;30159;49.316;8.558;2023-02-28T00:21:08;101370.13;;;0.62;69.88
44457;BME280;30159;49.316;8.558;2023-02-28T00:23:35;101374.22;;;0.65;70.42
44457;BME280;30159;49.316;8.558;2023-02-28T00:26:02;101366.75;;;0.53;70.50
44457;BME280;30159;49.316;8.558;2023-02-28T00:28:29;101368.59;;;0.53;70.81
44457;BME280;30159;49.316;8.558;2023-02-28T00:30:56;101362.66;;;0.51;70.28
44457;BME280;30159;49.316;8.558;2023-02-28T00:33:26;101357.47;;;0.43;71.79
44457;BME280;30159;49.316;8.558;2023-02-28T00:36:01;101366.50;;;0.48;71.49
44457;BME280;30159;49.316;8.558;2023-02-28T00:38:28;101357.25;;;0.44;71.41
44457;BME280;30159;49.316;8.558;2023-02-28T00:40:55;101365.63;;;0.41;71.60
44457;BME280;30159;49.316;8.558;2023-02-28T00:43:21;101371.47;;;0.36;72.17
44457;BME280;30159;49.316;8.558;2023-02-28T00:45:48;101370.03;;;0.34;72.69
44457;BME280;30159;49.316;8.558;2023-02-28T00:48:14;101377.19;;;0.33;72.97
44457;BME280;30159;49.316;8.558;2023-02-28T00:50:42;101364.81;;;0.26;72.64
44457;BME280;30159;49.316;8.558;2023-02-28T00:53:09;101374.19;;;0.22;73.63
44457;BME280;30159;49.316;8.558;2023-02-28T00:55:35;101369.78;;;0.14;74.50
44457;BME280;30159;49.316;8.558;2023-02-28T00:58:02;101370.25;;;0.17;74.77
44457;BME280;30159;49.316;8.558;2023-02-28T01:00:28;101356.19;;;0.02;75.20
44457;BME280;30159;49.316;8.558;2023-02-28T01:02:55;101369.81;;;-0.01;75.40
44457;BME280;30159;49.316;8.558;2023-02-28T01:05:21;101368.47;;;0.03;76.72
44457;BME280;30159;49.316;8.558;2023-02-28T01:07:49;101350.66;;;-0.18;76.73
44457;BME280;30159;49.316;8.558;2023-02-28T01:10:16;101372.03;;;-0.19;76.88
44457;BME280;30159;49.316;8.558;2023-02-28T01:12:42;101365.44;;;-0.24;77.55
44457;BME280;30159;49.316;8.558;2023-02-28T01:15:10;101361.16;;;-0.25;77.84
44457;BME280;30159;49.316;8.558;2023-02-28T01:17:37;101362.91;;;-0.32;78.78
44457;BME280;30159;49.316;8.558;2023-02-28T01:20:04;101368.22;;;-0.32;79.01
44457;BME280;30159;49.316;8.558;2023-02-28T01:22:31;101365.66;;;-0.40;78.97
44457;BME280;30159;49.316;8.558;2023-02-28T01:24:59;101371.84;;;-0.33;78.84
44457;BME280;30159;49.316;8.558;2023-02-28T01:27:25;101372.59;;;-0.39;80.29
44457;BME280;30159;49.316;8.558;2023-02-28T01:29:52;101366.41;;;-0.46;79.86
44457;BME280;30159;49.316;8.558;2023-02-28T01:32:18;101364.81;;;-0.40;80.59
44457;BME280;30159;49.316;8.558;2023-02-28T01:34:45;101365.28;;;-0.37;80.12
44457;BME280;30159;49.316;8.558;2023-02-28T01:37:12;101368.13;;;-0.38;80.64
44457;BME280;30159;49.316;8.558;2023-02-28T01:39:38;101363.09;;;-0.48;80.40
44457;BME280;30159;49.316;8.558;2023-02-28T01:42:08;101364.63;;;-0.54;81.99
44457;BME280;30159;49.316;8.558;2023-02-28T01:44:55;101361.53;;;-0.57;81.17
44457;BME280;30159;49.316;8.558;2023-02-28T01:47:24;101355.75;;;-0.61;82.83
44457;BME280;30159;49.316;8.558;2023-02-28T01:49:52;101359.53;;;-0.55;83.09
44457;BME280;30159;49.316;8.558;2023-02-28T01:52:19;101359.44;;;-0.62;83.14
44457;BME280;30159;49.316;8.558;2023-02-28T01:54:47;101353.31;;;-0.62;83.55
44457;BME280;30159;49.316;8.558;2023-02-28T01:57:20;101353.03;;;-0.68;82.23
44457;BME280;30159;49.316;8.558;2023-02-28T01:59:52;101348.63;;;-0.75;82.91
44457;BME280;30159;49.316;8.558;2023-02-28T02:02:21;101343.16;;;-0.74;82.74
44457;BME280;30159;49.316;8.558;2023-02-28T02:04:53;101349.28;;;-0.73;84.29
44457;BME280;30159;49.316;8.558;2023-02-28T02:07:21;101343.34;;;-0.75;84.14
44457;BME280;30159;49.316;8.558;2023-02-28T02:09:48;101342.53;;;-0.76;84.65
44457;BME280;30159;49.316;8.558;2023-02-28T02:12:25;101342.91;;;-0.79;85.11
44457;BME280;30159;49.316;8.558;2023-02-28T02:15:01;101337.94;;;-0.82;84.44
44457;BME280;30159;49.316;8.558;2023-02-28T02:17:33;101343.78;;;-0.87;85.72
44457;BME280;30159;49.316;8.558;2023-02-28T02:23:52;101337.66;;;-0.87;84.96
44457;BME280;30159;49.316;8.558;2023-02-28T02:26:50;101338.84;;;-0.90;86.79
44457;BME280;30159;49.316;8.558;2023-02-28T02:30:04;101329.44;;;-0.92;86.77
44457;BME280;30159;49.316;8.558;2023-02-28T02:33:01;101333.38;;;-0.88;85.74
44457;BME280;30159;49.316;8.558;2023-02-28T02:35:35;101346.03;;;-0.98;87.24
44457;BME280;30159;49.316;8.558;2023-02-28T02:38:09;101332.09;;;-0.92;87.33
44457;BME280;30159;49.316;8.558;2023-02-28T02:40:42;101338.69;;;-0.88;85.78
44457;BME280;30159;49.316;8.558;2023-02-28T02:43:14;101335.66;;;-0.85;86.86
44457;BME280;30159;49.316;8.558;2023-02-28T02:45:46;101330.91;;;-0.90;86.54
44457;BME280;30159;49.316;8.558;2023-02-28T02:48:17;101328.91;;;-0.88;86.50
44457;BME280;30159;49.316;8.558;2023-02-28T02:50:49;101334.56;;;-0.91;86.35
44457;BME280;30159;49.316;8.558;2023-02-28T02:53:18;101337.22;;;-0.91;86.81
44457;BME280;30159;49.316;8.558;2023-02-28T02:55:51;101337.75;;;-0.95;87.29
44457;BME280;30159;49.316;8.558;2023-02-28T02:58:23;101332.25;;;-0.94;86.78
44457;BME280;30159;49.316;8.558;2023-02-28T03:00:53;101339.75;;;-0.97;88.11
44457;BME280;30159;49.316;8.558;2023-02-28T03:03:22;101329.81;;;-0.95;88.64
44457;BME280;30159;49.316;8.558;2023-02-28T03:05:57;101327.88;;;-1.01;87.36
44457;BME280;30159;49.316;8.558;2023-02-28T03:08:25;101266.75;;;-1.44;88.30
44457;BME280;30159;49.316;8.558;2023-02-28T03:10:56;101336.28;;;-0.98;88.66
44457;BME280;30159;49.316;8.558;2023-02-28T03:16:51;101324.31;;;-1.09;88.91
44457;BME280;30159;49.316;8.558;2023-02-28T03:19:30;101271.56;;;-1.48;88.84
44457;BME280;30159;49.316;8.558;2023-02-28T03:22:14;101328.03;;;-1.03;87.86
44457;BME280;30159;49.316;8.558;2023-02-28T03:24:47;101319.28;;;-1.03;87.48
44457;BME280;30159;49.316;8.558;2023-02-28T03:27:21;101320.94;;;-1.02;89.32
44457;BME280;30159;49.316;8.558;2023-02-28T03:29:52;101261.44;;;-1.44;88.12
44457;BME280;30159;49.316;8.558;2023-02-28T03:32:24;101318.56;;;-0.97;88.93
44457;BME280;30159;49.316;8.558;2023-02-28T03:34:58;101328.25;;;-0.90;87.03
44457;BME280;30159;49.316;8.558;2023-02-28T03:37:31;101319.22;;;-0.95;87.95
44457;BME280;30159;49.316;8.558;2023-02-28T03:40:04;101326.63;;;-0.91;86.99
44457;BME280;30159;49.316;8.558;2023-02-28T03:42:35;101324.41;;;-0.87;87.50
44457;BME280;30159;49.316;8.558;2023-02-28T03:45:05;101322.16;;;-0.90;88.08
44457;BME280;30159;49.316;8.558;2023-02-28T03:47:38;101324.97;;;-0.92;86.83
44457;BME280;30159;49.316;8.558;2023-02-28T03:50:08;101323.78;;;-0.89;86.89
44457;BME280;30159;49.316;8.558;2023-02-28T03:52:42;101313.72;;;-0.94;86.53
44457;BME280;30159;49.316;8.558;2023-02-28T03:55:13;101328.25;;;-0.90;87.13
44457;BME280;30159;49.316;8.558;2023-02-28T03:57:47;101331.19;;;-0.85;86.63
44457;BME280;30159;49.316;8.558;2023-02-28T04:00:19;101333.38;;;-0.88;88.21
44457;BME280;30159;49.316;8.558;2023-02-28T04:02:46;101332.53;;;-0.89;88.40
44457;BME280;30159;49.316;8.558;2023-02-28T04:05:18;101330.91;;;-0.90;87.64
44457;BME280;30159;49.316;8.558;2023-02-28T04:07:46;101333.09;;;-0.93;87.48
44457;BME280;30159;49.316;8.558;2023-02-28T04:10:14;101334.38;;;-0.89;87.63
44457;BME280;30159;49.316;8.558;2023-02-28T04:12:41;101325.44;;;-0.88;87.65
44457;BME280;30159;49.316;8.558;2023-02-28T04:15:08;101329.06;;;-0.89;87.35
44457;BME280;30159;49.316;8.558;2023-02-28T04:17:35;101317.56;;;-0.96;87.71
44457;BME280;30159;49.316;8.558;2023-02-28T04:20:03;101330.38;;;-0.85;87.60
44457;BME280;30159;49.316;8.558;2023-02-28T04:22:34;101330.72;;;-0.88;88.95
44457;BME280;30159;49.316;8.558;2023-02-28T04:25:03;101330.38;;;-0.85;87.36
44457;BME280;30159;49.316;8.558;2023-02-28T04:27:30;101336.94;;;-0.81;87.55
44457;BME280;30159;49.316;8.558;2023-02-28T04:29:57;101335.75;;;-0.78;87.12
44457;BME280;30159;49.316;8.558;2023-02-28T04:32:23;101330.28;;;-0.77;87.23
44457;BME280;30159;49.316;8.558;2023-02-28T04:34:50;101327.72;;;-0.70;87.15
44457;BME280;30159;49.316;8.558;2023-02-28T04:37:16;101332.69;;;-0.67;86.99
44457;BME280;30159;49.316;8.558;2023-02-28T04:39:43;101333.50;;;-0.67;87.83
44457;BME280;30159;49.316;8.558;2023-02-28T04:42:12;101324.25;;;-0.71;87.50
44457;BME280;30159;49.316;8.558;2023-02-28T04:44:39;101339.50;;;-0.73;88.22
44457;BME280;30159;49.316;8.558;2023-02-28T04:47:05;101331.22;;;-0.70;87.59
44457;BME280;30159;49.316;8.558;2023-02-28T04:49:32;101333.50;;;-0.67;86.53
44457;BME280;30159;49.316;8.558;2023-02-28T04:51:58;101330.03;;;-0.67;87.37
44457;BME280;30159;49.316;8.558;2023-02-28T04:54:25;101332.41;;;-0.57;87.10
44457;BME280;30159;49.316;8.558;2023-02-28T04:56:51;101324.06;;;-0.54;87.25
44457;BME280;30159;49.316;8.558;2023-02-28T04:59:19;101334.13;;;-0.50;87.04
44457;BME280;30159;49.316;8.558;2023-02-28T05:01:47;101332.03;;;-0.54;85.90
44457;BME280;30159;49.316;8.558;2023-02-28T05:04:15;101292.19;;;-0.76;85.69
44457;BME280;30159;49.316;8.558;2023-02-28T05:06:42;101332.47;;;-0.36;85.30
44457;BME280;30159;49.316;8.558;2023-02-28T05:09:08;101327.81;;;-0.34;84.87
44457;BME280;30159;49.316;8.558;2023-02-28T05:11:36;101289.38;;;-0.59;85.15
44457;BME280;30159;49.316;8.558;2023-02-28T05:14:06;101329.75;;;-0.28;84.12
44457;BME280;30159;49.316;8.558;2023-02-28T05:16:34;101341.00;;;-0.26;84.33
44457;BME280;30159;49.316;8.558;2023-02-28T05:19:01;101332.53;;;-0.14;84.76
44457;BME280;30159;49.316;8.558;2023-02-28T05:21:30;101340.13;;;-0.11;84.05
44457;BME280;30159;49.316;8.558;2023-02-28T05:23:58;101344.03;;;-0.07;83.17
44457;BME280;30159;49.316;8.558;2023-02-28T05:26:26;101350.38;;;-0.08;82.40
44457;BME280;30159;49.316;8.558;2023-02-28T05:28:53;101329.63;;;-0.19;82.82
44457;BME280;30159;49.316;8.558;2023-02-28T05:31:19;101349.72;;;-0.10;83.08
44457;BME280;30159;49.316;8.558;2023-02-28T05:33:47;101350.28;;;-0.15;83.58
44457;BME280;30159;49.316;8.558;2023-02-28T05:36:14;101351.81;;;-0.06;83.25
44457;BME280;30159;49.316;8.558;2023-02-28T05:38:41;101357.47;;;0.06;82.79
44457;BME280;30159;49.316;8.558;2023-02-28T05:41:08;101343.50;;;-0.03;81.86
44457;BME280;30159;49.316;8.558;2023-02-28T05:43:34;101355.19;;;0.03;81.73
44457;BME280;30159;49.316;8.558;2023-02-28T05:46:03;101243.59;;;-0.53;82.24
44457;BME280;30159;49.316;8.558;2023-02-28T05:48:30;101354.09;;;0.12;80.73
44457;BME280;30159;49.316;8.558;2023-02-28T05:50:58;101356.53;;;0.14;81.00
44457;BME280;30159;49.316;8.558;2023-02-28T05:53:25;101356.91;;;0.11;81.02
44457;BME280;30159;49.316;8.558;2023-02-28T05:55:52;101360.22;;;0.13;81.42
44457;BME280;30159;49.316;8.558;2023-02-28T05:58:19;101260.13;;;-0.51;80.57
44457;BME280;30159;49.316;8.558;2023-02-28T06:00:45;101350.06;;;0.02;80.52
44457;BME280;30159;49.316;8.558;2023-02-28T06:03:12;101362.59;;;0.08;80.70
44457;BME280;30159;49.316;8.558;2023-02-28T06:05:38;101366.06;;;0.08;80.57
44457;BME280;30159;49.316;8.558;2023-02-28T06:08:06;101361.56;;;0.09;80.45
44457;BME280;30159;49.316;8.558;2023-02-28T06:10:33;101360.13;;;0.06;81.53
44457;BME280;30159;49.316;8.558;2023-02-28T06:13:00;101361.31;;;0.04;81.44
44457;BME280;30159;49.316;8.558;2023-02-28T06:15:28;101352.94;;;0.00;81.79
44457;BME280;30159;49.316;8.558;2023-02-28T06:17:55;101353.03;;;-0.08;81.17
44457;BME280;30159;49.316;8.558;2023-02-28T06:20:23;101366.44;;;0.05;80.76
44457;BME280;30159;49.316;8.558;2023-02-28T06:22:49;101376.03;;;0.06;81.44
44457;BME280;30159;49.316;8.558;2023-02-28T06:25:17;101371.94;;;0.04;80.63
44457;BME280;30159;49.316;8.558;2023-02-28T06:27:44;101379.31;;;0.08;80.78
44457;BME280;30159;49.316;8.558;2023-02-28T06:30:11;101373.22;;;0.08;80.61
44457;BME280;30159;49.316;8.558;2023-02-28T06:32:38;101368.81;;;0.15;80.58
44457;BME280;30159;49.316;8.558;2023-02-28T06:35:05;101377.84;;;0.20;80.45
44457;BME280;30159;49.316;8.558;2023-02-28T06:37:32;101378.47;;;0.23;79.99
44457;BME280;30159;49.316;8.558;2023-02-28T06:39:59;101379.00;;;0.33;79.54
44457;BME280;30159;49.316;8.558;2023-02-28T06:42:27;101383.25;;;0.49;79.55
44457;BME280;30159;49.316;8.558;2023-02-28T06:44:56;101381.44;;;0.71;78.04
44457;BME280;30159;49.316;8.558;2023-02-28T06:47:22;101380.81;;;0.69;77.88
44457;BME280;30159;49.316;8.558;2023-02-28T06:49:49;101290.13;;;0.22;78.08
44457;BME280;30159;49.316;8.558;2023-02-28T06:52:16;101378.13;;;0.90;78.56
44457;BME280;30159;49.316;8.558;2023-02-28T06:54:43;101387.72;;;1.13;78.00
44457;BME280;30159;49.316;8.558;2023-02-28T06:57:09;101376.19;;;0.99;75.92
44457;BME280;30159;49.316;8.558;2023-02-28T06:59:37;101399.72;;;1.30;75.69
44457;BME280;30159;49.316;8.558;2023-02-28T07:02:04;101390.72;;;1.59;74.28
44457;BME280;30159;49.316;8.558;2023-02-28T07:04:32;101397.84;;;1.87;72.87
44457;BME280;30159;49.316;8.558;2023-02-28T07:06:58;101288.00;;;1.10;72.89
44457;BME280;30159;49.316;8.558;2023-02-28T07:09:25;101403.22;;;2.07;71.75
44457;BME280;30159;49.316;8.558;2023-02-28T07:11:54;101410.03;;;2.16;72.23
44457;BME280;30159;49.316;8.558;2023-02-28T07:14:21;101409.38;;;1.66;73.56
44457;BME280;30159;49.316;8.558;2023-02-28T07:16:49;101326.97;;;1.31;72.89
44457;BME280;30159;49.316;8.558;2023-02-28T07:19:15;101388.09;;;1.66;73.15
44457;BME280;30159;49.316;8.558;2023-02-28T07:21:42;101394.78;;;1.55;72.96
44457;BME280;30159;49.316;8.558;2023-02-28T07:24:08;101415.56;;;1.73;73.10
44457;BME280;30159;49.316;8.558;2023-02-28T07:26:35;101416.41;;;1.80;72.47
44457;BME280;30159;49.316;8.558;2023-02-28T07:29:02;101407.53;;;1.66;72.94
44457;BME280;30159;49.316;8.558;2023-02-28T07:31:28;101415.09;;;1.69;72.76
44457;BME280;30159;49.316;8.558;2023-02-28T07:33:56;101427.41;;;1.71;72.63
44457;BME280;30159;49.316;8.558;2023-02-28T07:36:23;101427.94;;;1.59;73.64
44457;BME280;30159;49.316;8.558;2023-02-28T07:38:49;101424.03;;;1.55;72.96
44457;BME280;30159;49.316;8.558;2023-02-28T07:41:16;101430.25;;;1.41;73.60
44457;BME280;30159;49.316;8.558;2023-02-28T07:43:43;101424.38;;;1.45;73.88
44457;BME280;30159;49.316;8.558;2023-02-28T07:46:12;101426.78;;;1.40;73.57
44457;BME280;30159;49.316;8.558;2023-02-28T07:48:40;100848.22;;;-2.27;73.51
44457;BME280;30159;49.316;8.558;2023-02-28T07:51:08;101428.59;;;1.40;74.24
44457;BME280;30159;49.316;8.558;2023-02-28T07:53:35;101432.34;;;1.45;74.36
44457;BME280;30159;49.316;8.558;2023-02-28T07:56:02;101392.56;;;1.31;73.88
44457;BME280;30159;49.316;8.558;2023-02-28T07:58:29;101411.38;;;1.29;73.30
44457;BME280;30159;49.316;8.558;2023-02-28T08:00:56;101425.63;;;1.50;74.34
44457;BME280;30159;49.316;8.558;2023-02-28T08:03:23;101334.38;;;0.86;74.20
44457;BME280;30159;49.316;8.558;2023-02-28T08:05:50;101427.94;;;1.59;73.67
44457;BME280;30159;49.316;8.558;2023-02-28T08:08:19;101429.44;;;1.68;73.57
44457;BME280;30159;49.316;8.558;2023-02-28T08:10:46;101364.97;;;1.32;73.21
44457;BME280;30159;49.316;8.558;2023-02-28T08:13:12;101427.34;;;1.64;73.50
44457;BME280;30159;49.316;8.558;2023-02-28T08:15:40;101423.25;;;1.61;72.83
44457;BME280;30159;49.316;8.558;2023-02-28T08:18:07;101425.91;;;1.61;73.11
44457;BME280;30159;49.316;8.558;2023-02-28T08:20:33;101420.00;;;1.66;73.34
44457;BME280;30159;49.316;8.558;2023-02-28T08:23:00;101438.09;;;1.77;73.11
44457;BME280;30159;49.316;8.558;2023-02-28T08:25:28;101430.84;;;1.64;72.73
44457;BME280;30159;49.316;8.558;2023-02-28T08:27:54;101406.00;;;1.51;73.22
44457;BME280;30159;49.316;8.558;2023-02-28T08:30:21;101426.78;;;1.68;73.56
44457;BME280;30159;49.316;8.558;2023-02-28T08:32:47;101413.13;;;1.78;72.97
44457;BME280;30159;49.316;8.558;2023-02-28T08:35:14;101424.22;;;1.82;72.61
44457;BME280;30159;49.316;8.558;2023-02-28T08:37:41;101429.03;;;1.72;72.27
44457;BME280;30159;49.316;8.558;2023-02-28T08:40:08;101425.91;;;1.61;72.54
44457;BME280;30159;49.316;8.558;2023-02-28T08:42:36;101420.25;;;1.71;72.95
44457;BME280;30159;49.316;8.558;2023-02-28T08:45:03;101418.25;;;1.80;72.59
44457;BME280;30159;49.316;8.558;2023-02-28T08:47:31;101420.06;;;1.79;72.41
44457;BME280;30159;49.316;8.558;2023-02-28T08:49:58;101244.38;;;0.70;72.64
44457;BME280;30159;49.316;8.558;2023-02-28T08:52:24;101427.69;;;1.82;72.48
44457;BME280;30159;49.316;8.558;2023-02-28T08:54:51;101395.91;;;1.74;71.92
44457;BME280;30159;49.316;8.558;2023-02-28T08:57:17;101425.97;;;2.03;71.75
44457;BME280;30159;49.316;8.558;2023-02-28T08:59:45;101427.41;;;2.12;71.19
44457;BME280;30159;49.316;8.558;2023-02-28T09:02:12;101416.16;;;2.17;71.55
44457;BME280;30159;49.316;8.558;2023-02-28T09:04:39;101423.53;;;2.08;71.05
44457;BME280;30159;49.316;8.558;2023-02-28T09:07:06;101423.53;;;2.08;71.29
44457;BME280;30159;49.316;8.558;2023-02-28T09:09:32;101430.44;;;2.02;70.87
44457;BME280;30159;49.316;8.558;2023-02-28T09:11:59;101411.19;;;2.00;70.67
44457;BME280;30159;49.316;8.558;2023-02-28T09:14:31;101370.03;;;1.89;70.91
44457;BME280;30159;49.316;8.558;2023-02-28T09:16:59;101428.97;;;2.41;70.64
44457;BME280;30159;49.316;8.558;2023-02-28T09:19:26;101418.13;;;2.43;69.41
44457;BME280;30159;49.316;8.558;2023-02-28T09:21:52;101420.19;;;2.54;69.05
44457;BME280;30159;49.316;8.558;2023-02-28T09:24:19;101411.00;;;2.63;69.22
44457;BME280;30159;49.316;8.558;2023-02-28T09:26:45;101411.84;;;2.64;69.05
44457;BME280;30159;49.316;8.558;2023-02-28T09:29:12;101412.03;;;2.62;68.92
44457;BME280;30159;49.316;8.558;2023-02-28T09:31:39;101409.84;;;2.99;68.94
44457;BME280;30159;49.316;8.558;2023-02-28T09:34:07;101375.19;;;2.99;67.40
44457;BME280;30159;49.316;8.558;2023-02-28T09:36:34;101408.22;;;3.25;66.70
44457;BME280;30159;49.316;8.558;2023-02-28T09:39:03;101320.47;;;2.83;67.19
44457;BME280;30159;49.316;8.558;2023-02-28T09:41:36;101409.22;;;3.50;66.86
44457;BME280;30159;49.316;8.558;2023-02-28T09:44:07;101399.16;;;3.59;66.36
44457;BME280;30159;49.316;8.558;2023-02-28T09:46:41;101405.91;;;3.62;66.08
44457;BME280;30159;49.316;8.558;2023-02-28T09:49:14;101394.22;;;3.63;65.94
44457;BME280;30159;49.316;8.558;2023-02-28T09:51:50;101400.16;;;3.65;65.18
44457;BME280;30159;49.316;8.558;2023-02-28T09:54:19;101406.91;;;3.80;65.33
44457;BME280;30159;49.316;8.558;2023-02-28T09:56:49;101406.91;;;3.80;64.99
44457;BME280;30159;49.316;8.558;2023-02-28T09:59:39;101405.19;;;3.99;65.20
44457;BME280;30159;49.316;8.558;2023-02-28T10:02:19;101399.06;;;3.92;64.86
44457;BME280;30159;49.316;8.558;2023-02-28T10:04:51;101417.41;;;4.27;64.33
44457;BME280;30159;49.316;8.558;2023-02-28T10:07:36;101411.63;;;3.85;63.83
44457;BME280;30159;49.316;8.558;2023-02-28T10:10:13;101409.59;;;3.61;64.58
44457;BME280;30159;49.316;8.558;2023-02-28T10:12:44;101425.41;;;3.55;64.21
44457;BME280;30159;49.316;8.558;2023-02-28T10:15:14;101333.56;;;3.11;64.88
44457;BME280;30159;49.316;8.558;2023-02-28T10:17:43;101400.59;;;3.62;64.37
44457;BME280;30159;49.316;8.558;2023-02-28T10:20:16;101403.63;;;3.78;64.30
44457;BME280;30159;49.316;8.558;2023-02-28T10:22:52;101355.44;;;3.53;63.90
44457;BME280;30159;49.316;8.558;2023-02-28T10:25:21;101408.72;;;3.87;63.64
44457;BME280;30159;49.316;8.558;2023-02-28T10:27:49;101375.34;;;3.57;63.18
44457;BME280;30159;49.316;8.558;2023-02-28T10:30:16;101415.91;;;3.79;63.80
44457;BME280;30159;49.316;8.558;2023-02-28T10:32:48;101338.03;;;3.44;64.00
44457;BME280;30159;49.316;8.558;2023-02-28T10:35:19;101409.47;;;4.07;63.01
44457;BME280;30159;49.316;8.558;2023-02-28T10:37:47;101416.19;;;4.23;62.92
44457;BME280;30159;49.316;8.558;2023-02-28T10:40:31;101406.66;;;4.40;62.09
44457;BME280;30159;49.316;8.558;2023-02-28T10:42:59;101348.50;;;4.11;61.99
44457;BME280;30159;49.316;8.558;2023-02-28T10:45:28;101395.97;;;4.40;61.75
44457;BME280;30159;49.316;8.558;2023-02-28T10:47:57;101369.34;;;4.27;60.91
44457;BME280;30159;49.316;8.558;2023-02-28T10:50:33;101413.66;;;4.41;62.17
44457;BME280;30159;49.316;8.558;2023-02-28T10:53:10;101399.69;;;4.39;61.38
44457;BME280;30159;49.316;8.558;2023-02-28T10:55:40;101394.78;;;4.36;61.55
44457;BME280;30159;49.316;8.558;2023-02-28T10:58:20;101322.56;;;3.73;61.62
44457;BME280;30159;49.316;8.558;2023-02-28T11:00:47;101375.84;;;4.38;62.01
44457;BME280;30159;49.316;8.558;2023-02-28T11:03:24;101407.50;;;4.73;61.64
44457;BME280;30159;49.316;8.558;2023-02-28T11:05:52;101393.28;;;4.79;60.76
44457;BME280;30159;49.316;8.558;2023-02-28T11:08:19;101402.25;;;4.91;60.95
44457;BME280;30159;49.316;8.558;2023-02-28T11:10:47;101327.13;;;4.42;60.80
44457;BME280;30159;49.316;8.558;2023-02-28T11:13:17;101396.25;;;4.96;60.53
44457;BME280;30159;49.316;8.558;2023-02-28T11:15:51;101320.63;;;4.38;59.93
44457;BME280;30159;49.316;8.558;2023-02-28T11:18:23;101379.84;;;4.60;60.99
44457;BME280;30159;49.316;8.558;2023-02-28T11:20:54;101388.00;;;4.72;60.82
44457;BME280;30159;49.316;8.558;2023-02-28T11:23:25;101396.63;;;4.74;60.94
44457;BME280;30159;49.316;8.558;2023-02-28T11:25:56;101385.41;;;4.59;60.79
44457;BME280;30159;49.316;8.558;2023-02-28T11:28:27;101377.13;;;4.67;62.31
44457;BME280;30159;49.316;8.558;2023-02-28T11:31:03;101359.19;;;4.74;60.86
44457;BME280;30159;49.316;8.558;2023-02-28T11:33:31;101386.22;;;4.91;60.73
44457;BME280;30159;49.316;8.558;2023-02-28T11:36:02;101386.69;;;4.81;60.59
44457;BME280;30159;49.316;8.558;2023-02-28T11:38:38;101387.28;;;4.52;60.64
44457;BME280;30159;49.316;8.558;2023-02-28T11:41:32;101377.75;;;4.69;61.92
44457;BME280;30159;49.316;8.558;2023-02-28T11:44:13;101368.78;;;4.82;61.64
44457;BME280;30159;49.316;8.558;2023-02-28T11:46:47;101375.41;;;5.04;61.16
44457;BME280;30159;49.316;8.558;2023-02-28T11:49:26;101348.66;;;4.79;60.43
44457;BME280;30159;49.316;8.558;2023-02-28T11:51:59;101331.44;;;4.75;59.74
44457;BME280;30159;49.316;8.558;2023-02-28T11:54:53;101385.72;;;5.01;60.72
44457;BME280;30159;49.316;8.558;2023-02-28T11:57:41;101383.69;;;4.96;60.17
44457;BME280;30159;49.316;8.558;2023-02-28T12:00:28;101377.81;;;4.88;60.35
44457;BME280;30159;49.316;8.558;2023-02-28T12:03:10;101351.84;;;4.70;61.16
44457;BME280;30159;49.316;8.558;2023-02-28T12:05:44;101362.63;;;4.81;60.38
44457;BME280;30159;49.316;8.558;2023-02-28T12:08:25;101340.94;;;4.71;60.61
44457;BME280;30159;49.316;8.558;2023-02-28T12:11:02;101378.47;;;5.08;61.03
44457;BME280;30159;49.316;8.558;2023-02-28T12:13:40;101379.97;;;5.04;59.72
44457;BME280;30159;49.316;8.558;2023-02-28T12:16:29;101377.75;;;5.19;60.13
44457;BME280;30159;49.316;8.558;2023-02-28T12:19:20;101387.47;;;5.39;59.91
44457;BME280;30159;49.316;8.558;2023-02-28T12:22:00;101365.47;;;5.37;59.35
44457;BME280;30159;49.316;8.558;2023-02-28T12:25:00;101364.22;;;5.14;59.29
44457;BME280;30159;49.316;8.558;2023-02-28T12:27:32;101355.28;;;5.02;60.57
44457;BME280;30159;49.316;8.558;2023-02-28T12:30:02;101369.56;;;5.14;59.26
44457;BME280;30159;49.316;8.558;2023-02-28T12:32:35;101364.69;;;5.11;58.68
44457;BME280;30159;49.316;8.558;2023-02-28T12:35:06;101360.72;;;4.89;59.27
44457;BME280;30159;49.316;8.558;2023-02-28T12:37:40;101366.06;;;4.89;59.55
44457;BME280;30159;49.316;8.558;2023-02-28T12:40:12;101367.59;;;5.03;60.01
44457;BME280;30159;49.316;8.558;2023-02-28T12:42:44;101366.63;;;5.22;60.16
44457;BME280;30159;49.316;8.558;2023-02-28T12:45:18;101364.56;;;5.24;58.92
44457;BME280;30159;49.316;8.558;2023-02-28T12:47:49;101355.56;;;5.19;59.60
44457;BME280;30159;49.316;8.558;2023-02-28T12:50:17;101339.81;;;5.29;59.30
44457;BME280;30159;49.316;8.558;2023-02-28T12:52:50;101353.38;;;5.53;59.43
44457;BME280;30159;49.316;8.558;2023-02-28T12:55:25;101353.59;;;5.69;58.40
44457;BME280;30159;49.316;8.558;2023-02-28T12:57:58;101352.78;;;5.69;58.21
44457;BME280;30159;49.316;8.558;2023-02-28T13:00:35;101335.00;;;5.75;57.81
44457;BME280;30159;49.316;8.558;2023-02-28T13:03:30;101344.78;;;5.69;58.11
44457;BME280;30159;49.316;8.558;2023-02-28T13:06:28;101350.13;;;5.87;57.76
44457;BME280;30159;49.316;8.558;2023-02-28T13:09:05;101322.75;;;5.85;57.78
44457;BME280;30159;49.316;8.558;2023-02-28T13:11:41;101296.47;;;5.76;58.05
44457;BME280;30159;49.316;8.558;2023-02-28T13:14:20;101344.16;;;5.85;58.24
44457;BME280;30159;49.316;8.558;2023-02-28T13:16:57;101336.34;;;5.84;58.23
44457;BME280;30159;49.316;8.558;2023-02-28T13:19:26;101325.44;;;5.67;58.56
44457;BME280;30159;49.316;8.558;2023-02-28T13:21:55;101350.34;;;5.67;57.42